sensor_id;sensor_type;location;lat;lon;timestamp;P1;durP1;ratioP1;P2;durP2;ratioP2
64816;SDS011;69411;45.656;11.740;2023-05-19T00:00:16;6.07;;;4.05;;
64816;SDS011;69411;45.656;11.740;2023-05-19T00:02:43;8.57;;;4.28;;
64816;SDS011;69411;45.656;11.740;2023-05-19T00:05:10;8.40;;;4.72;;
64816;SDS011;69411;45.656;11.740;2023-05-19T00:07:39;7.80;;;4.07;;
64816;SDS011;69411;45.656;11.740;2023-05-19T00:10:08;7.25;;;3.78;;
64816;SDS011;69411;45.656;11.740;2023-05-19T00:12:35;8.20;;;4.35;;
64816;SDS011;69411;45.656;11.740;2023-05-19T00:15:02;7.55;;;4.50;;
64816;SDS011;69411;45.656;11.740;2023-05-19T00:17:28;6.97;;;3.80;;
64816;SDS011;69411;45.656;11.740;2023-05-19T00:19:54;7.63;;;4.22;;
64816;SDS011;69411;45.656;11.740;2023-05-19T00:22:19;6.68;;;4.10;;
64816;SDS011;69411;45.656;11.740;2023-05-19T00:24:45;9.00;;;4.28;;
64816;SDS011;69411;45.656;11.740;2023-05-19T00:27:11;7.70;;;4.00;;
64816;SDS011;69411;45.656;11.740;2023-05-19T00:29:37;7.40;;;4.35;;
64816;SDS011;69411;45.656;11.740;2023-05-19T00:32:03;8.93;;;3.78;;
64816;SDS011;69411;45.656;11.740;2023-05-19T00:34:29;8.57;;;4.30;;
64816;SDS011;69411;45.656;11.740;2023-05-19T00:36:55;11.07;;;4.40;;
64816;SDS011;69411;45.656;11.740;2023-05-19T00:39:21;9.00;;;4.43;;
64816;SDS011;69411;45.656;11.740;2023-05-19T00:41:47;8.85;;;4.88;;
64816;SDS011;69411;45.656;11.740;2023-05-19T00:44:13;7.70;;;4.55;;
64816;SDS011;69411;45.656;11.740;2023-05-19T00:46:38;9.43;;;4.50;;
64816;SDS011;69411;45.656;11.740;2023-05-19T00:49:05;6.60;;;3.85;;
64816;SDS011;69411;45.656;11.740;2023-05-19T00:51:31;8.15;;;4.20;;
64816;SDS011;69411;45.656;11.740;2023-05-19T00:53:57;9.23;;;4.18;;
64816;SDS011;69411;45.656;11.740;2023-05-19T00:56:23;9.57;;;4.45;;
64816;SDS011;69411;45.656;11.740;2023-05-19T00:58:51;8.10;;;4.50;;
64816;SDS011;69411;45.656;11.740;2023-05-19T01:01:19;7.35;;;4.20;;
64816;SDS011;69411;45.656;11.740;2023-05-19T01:03:45;7.68;;;4.60;;
64816;SDS011;69411;45.656;11.740;2023-05-19T01:06:12;7.75;;;4.38;;
64816;SDS011;69411;45.656;11.740;2023-05-19T01:08:39;9.25;;;4.43;;
64816;SDS011;69411;45.656;11.740;2023-05-19T01:11:05;6.47;;;4.38;;
64816;SDS011;69411;45.656;11.740;2023-05-19T01:13:32;6.95;;;4.30;;
64816;SDS011;69411;45.656;11.740;2023-05-19T01:21:35;8.68;;;4.60;;
64816;SDS011;69411;45.656;11.740;2023-05-19T01:32:15;8.48;;;4.50;;
64816;SDS011;69411;45.656;11.740;2023-05-19T01:34:44;6.97;;;4.10;;
64816;SDS011;69411;45.656;11.740;2023-05-19T01:37:12;8.02;;;3.90;;
64816;SDS011;69411;45.656;11.740;2023-05-19T01:39:41;9.27;;;4.80;;
64816;SDS011;69411;45.656;11.740;2023-05-19T01:42:08;7.20;;;4.25;;
64816;SDS011;69411;45.656;11.740;2023-05-19T01:44:36;9.75;;;5.50;;
64816;SDS011;69411;45.656;11.740;2023-05-19T01:47:02;9.07;;;4.25;;
64816;SDS011;69411;45.656;11.740;2023-05-19T01:49:29;7.85;;;4.40;;
64816;SDS011;69411;45.656;11.740;2023-05-19T01:51:55;6.50;;;3.80;;
64816;SDS011;69411;45.656;11.740;2023-05-19T01:54:21;8.27;;;4.28;;
64816;SDS011;69411;45.656;11.740;2023-05-19T01:57:02;6.75;;;3.80;;
64816;SDS011;69411;45.656;11.740;2023-05-19T02:02:20;5.65;;;3.53;;
64816;SDS011;69411;45.656;11.740;2023-05-19T02:04:53;9.10;;;4.68;;
64816;SDS011;69411;45.656;11.740;2023-05-19T02:07:30;8.40;;;4.30;;
64816;SDS011;69411;45.656;11.740;2023-05-19T02:10:17;7.85;;;4.53;;
64816;SDS011;69411;45.656;11.740;2023-05-19T02:12:48;9.40;;;5.55;;
64816;SDS011;69411;45.656;11.740;2023-05-19T02:15:21;11.70;;;5.70;;
64816;SDS011;69411;45.656;11.740;2023-05-19T02:17:50;8.30;;;4.85;;
64816;SDS011;69411;45.656;11.740;2023-05-19T02:20:19;10.70;;;5.25;;
64816;SDS011;69411;45.656;11.740;2023-05-19T02:22:48;9.35;;;5.10;;
64816;SDS011;69411;45.656;11.740;2023-05-19T02:25:14;9.15;;;5.40;;
64816;SDS011;69411;45.656;11.740;2023-05-19T02:27:40;10.60;;;5.25;;
64816;SDS011;69411;45.656;11.740;2023-05-19T02:30:07;6.65;;;4.35;;
64816;SDS011;69411;45.656;11.740;2023-05-19T02:32:33;9.07;;;4.68;;
64816;SDS011;69411;45.656;11.740;2023-05-19T02:35:00;10.00;;;4.50;;
64816;SDS011;69411;45.656;11.740;2023-05-19T02:37:27;8.48;;;4.30;;
64816;SDS011;69411;45.656;11.740;2023-05-19T02:39:53;8.77;;;4.85;;
64816;SDS011;69411;45.656;11.740;2023-05-19T02:42:19;12.85;;;5.20;;
64816;SDS011;69411;45.656;11.740;2023-05-19T02:44:45;7.85;;;4.35;;
64816;SDS011;69411;45.656;11.740;2023-05-19T02:47:12;8.73;;;4.57;;
64816;SDS011;69411;45.656;11.740;2023-05-19T02:49:39;8.10;;;4.25;;
64816;SDS011;69411;45.656;11.740;2023-05-19T02:52:07;7.47;;;4.10;;
64816;SDS011;69411;45.656;11.740;2023-05-19T02:54:33;6.28;;;4.25;;
64816;SDS011;69411;45.656;11.740;2023-05-19T02:56:59;8.57;;;4.40;;
64816;SDS011;69411;45.656;11.740;2023-05-19T02:59:26;9.15;;;4.35;;
64816;SDS011;69411;45.656;11.740;2023-05-19T03:01:53;8.15;;;4.35;;
64816;SDS011;69411;45.656;11.740;2023-05-19T03:04:21;7.10;;;4.35;;
64816;SDS011;69411;45.656;11.740;2023-05-19T03:06:47;7.28;;;4.63;;
64816;SDS011;69411;45.656;11.740;2023-05-19T03:09:13;8.20;;;4.78;;
64816;SDS011;69411;45.656;11.740;2023-05-19T03:11:39;9.40;;;4.82;;
64816;SDS011;69411;45.656;11.740;2023-05-19T03:14:05;10.43;;;5.10;;
64816;SDS011;69411;45.656;11.740;2023-05-19T03:16:35;8.05;;;4.80;;
64816;SDS011;69411;45.656;11.740;2023-05-19T03:19:01;8.27;;;4.68;;
64816;SDS011;69411;45.656;11.740;2023-05-19T03:21:26;8.73;;;5.07;;
64816;SDS011;69411;45.656;11.740;2023-05-19T03:23:52;9.50;;;3.95;;
64816;SDS011;69411;45.656;11.740;2023-05-19T03:26:21;8.00;;;4.72;;
64816;SDS011;69411;45.656;11.740;2023-05-19T03:28:47;14.68;;;5.68;;
64816;SDS011;69411;45.656;11.740;2023-05-19T03:31:13;9.38;;;5.05;;
64816;SDS011;69411;45.656;11.740;2023-05-19T03:33:39;9.68;;;4.95;;
64816;SDS011;69411;45.656;11.740;2023-05-19T03:36:05;8.48;;;5.32;;
64816;SDS011;69411;45.656;11.740;2023-05-19T03:38:31;9.32;;;5.35;;
64816;SDS011;69411;45.656;11.740;2023-05-19T03:40:57;7.88;;;4.93;;
64816;SDS011;69411;45.656;11.740;2023-05-19T03:43:23;9.73;;;4.65;;
64816;SDS011;69411;45.656;11.740;2023-05-19T03:45:49;11.07;;;5.18;;
64816;SDS011;69411;45.656;11.740;2023-05-19T03:48:14;8.25;;;4.60;;
64816;SDS011;69411;45.656;11.740;2023-05-19T03:50:40;9.50;;;4.80;;
64816;SDS011;69411;45.656;11.740;2023-05-19T03:53:08;7.78;;;4.30;;
64816;SDS011;69411;45.656;11.740;2023-05-19T03:55:34;8.10;;;4.88;;
64816;SDS011;69411;45.656;11.740;2023-05-19T03:58:01;8.63;;;4.47;;
64816;SDS011;69411;45.656;11.740;2023-05-19T04:00:27;8.30;;;4.13;;
64816;SDS011;69411;45.656;11.740;2023-05-19T04:02:54;9.77;;;4.60;;
64816;SDS011;69411;45.656;11.740;2023-05-19T04:05:20;7.07;;;4.57;;
64816;SDS011;69411;45.656;11.740;2023-05-19T04:07:46;8.43;;;5.05;;
64816;SDS011;69411;45.656;11.740;2023-05-19T04:10:12;8.75;;;4.70;;
64816;SDS011;69411;45.656;11.740;2023-05-19T04:12:38;8.15;;;5.13;;
64816;SDS011;69411;45.656;11.740;2023-05-19T04:15:04;9.80;;;4.88;;
64816;SDS011;69411;45.656;11.740;2023-05-19T04:17:30;8.25;;;4.72;;
64816;SDS011;69411;45.656;11.740;2023-05-19T04:19:56;7.75;;;4.43;;
64816;SDS011;69411;45.656;11.740;2023-05-19T04:22:22;7.55;;;4.18;;
64816;SDS011;69411;45.656;11.740;2023-05-19T04:24:48;6.68;;;4.53;;
64816;SDS011;69411;45.656;11.740;2023-05-19T04:27:15;9.45;;;4.90;;
64816;SDS011;69411;45.656;11.740;2023-05-19T04:29:42;6.88;;;4.05;;
64816;SDS011;69411;45.656;11.740;2023-05-19T04:32:10;9.25;;;4.50;;
64816;SDS011;69411;45.656;11.740;2023-05-19T04:34:36;7.63;;;4.28;;
64816;SDS011;69411;45.656;11.740;2023-05-19T04:37:09;8.53;;;4.20;;
64816;SDS011;69411;45.656;11.740;2023-05-19T04:39:40;8.93;;;4.93;;
64816;SDS011;69411;45.656;11.740;2023-05-19T04:42:08;6.93;;;4.22;;
64816;SDS011;69411;45.656;11.740;2023-05-19T04:44:36;8.57;;;4.50;;
64816;SDS011;69411;45.656;11.740;2023-05-19T04:47:07;7.25;;;4.63;;
64816;SDS011;69411;45.656;11.740;2023-05-19T04:49:33;9.60;;;4.47;;
64816;SDS011;69411;45.656;11.740;2023-05-19T04:52:06;11.45;;;5.47;;
64816;SDS011;69411;45.656;11.740;2023-05-19T04:54:37;9.70;;;5.28;;
64816;SDS011;69411;45.656;11.740;2023-05-19T04:57:04;8.75;;;4.50;;
64816;SDS011;69411;45.656;11.740;2023-05-19T04:59:31;9.77;;;5.53;;
64816;SDS011;69411;45.656;11.740;2023-05-19T05:01:56;8.63;;;4.95;;
64816;SDS011;69411;45.656;11.740;2023-05-19T05:04:22;8.57;;;4.85;;
64816;SDS011;69411;45.656;11.740;2023-05-19T05:06:48;8.82;;;5.13;;
64816;SDS011;69411;45.656;11.740;2023-05-19T05:09:15;7.57;;;4.55;;
64816;SDS011;69411;45.656;11.740;2023-05-19T05:11:41;8.48;;;4.55;;
64816;SDS011;69411;45.656;11.740;2023-05-19T05:14:08;10.20;;;5.03;;
64816;SDS011;69411;45.656;11.740;2023-05-19T05:16:34;8.25;;;4.32;;
64816;SDS011;69411;45.656;11.740;2023-05-19T05:19:00;8.52;;;4.43;;
64816;SDS011;69411;45.656;11.740;2023-05-19T05:21:27;10.32;;;5.25;;
64816;SDS011;69411;45.656;11.740;2023-05-19T05:23:53;8.55;;;4.97;;
64816;SDS011;69411;45.656;11.740;2023-05-19T05:26:20;8.25;;;4.35;;
64816;SDS011;69411;45.656;11.740;2023-05-19T05:28:50;7.60;;;4.40;;
64816;SDS011;69411;45.656;11.740;2023-05-19T05:31:16;8.57;;;4.45;;
64816;SDS011;69411;45.656;11.740;2023-05-19T05:33:42;9.75;;;4.47;;
64816;SDS011;69411;45.656;11.740;2023-05-19T05:36:08;8.52;;;4.78;;
64816;SDS011;69411;45.656;11.740;2023-05-19T05:38:34;7.28;;;4.63;;
64816;SDS011;69411;45.656;11.740;2023-05-19T05:41:00;9.95;;;5.18;;
64816;SDS011;69411;45.656;11.740;2023-05-19T05:43:27;8.40;;;4.32;;
64816;SDS011;69411;45.656;11.740;2023-05-19T05:45:54;7.20;;;4.25;;
64816;SDS011;69411;45.656;11.740;2023-05-19T05:48:21;9.23;;;4.93;;
64816;SDS011;69411;45.656;11.740;2023-05-19T05:50:47;7.95;;;4.95;;
64816;SDS011;69411;45.656;11.740;2023-05-19T05:53:17;8.80;;;4.53;;
64816;SDS011;69411;45.656;11.740;2023-05-19T05:55:45;7.80;;;4.50;;
64816;SDS011;69411;45.656;11.740;2023-05-19T05:58:12;8.18;;;4.53;;
64816;SDS011;69411;45.656;11.740;2023-05-19T06:00:39;6.70;;;4.18;;
64816;SDS011;69411;45.656;11.740;2023-05-19T06:03:07;7.32;;;4.47;;
64816;SDS011;69411;45.656;11.740;2023-05-19T06:05:35;8.43;;;4.68;;
64816;SDS011;69411;45.656;11.740;2023-05-19T06:08:01;7.90;;;5.10;;
64816;SDS011;69411;45.656;11.740;2023-05-19T06:10:27;12.70;;;5.43;;
64816;SDS011;69411;45.656;11.740;2023-05-19T06:12:54;14.07;;;5.60;;
64816;SDS011;69411;45.656;11.740;2023-05-19T06:15:20;10.65;;;5.50;;
64816;SDS011;69411;45.656;11.740;2023-05-19T06:17:46;11.50;;;5.90;;
64816;SDS011;69411;45.656;11.740;2023-05-19T06:20:12;9.02;;;5.13;;
64816;SDS011;69411;45.656;11.740;2023-05-19T06:22:39;9.27;;;5.15;;
64816;SDS011;69411;45.656;11.740;2023-05-19T06:25:05;9.88;;;5.07;;
64816;SDS011;69411;45.656;11.740;2023-05-19T06:27:33;9.45;;;4.88;;
64816;SDS011;69411;45.656;11.740;2023-05-19T06:29:59;8.50;;;4.97;;
64816;SDS011;69411;45.656;11.740;2023-05-19T06:32:25;8.48;;;4.80;;
64816;SDS011;69411;45.656;11.740;2023-05-19T06:34:51;10.02;;;4.63;;
64816;SDS011;69411;45.656;11.740;2023-05-19T06:37:20;9.20;;;5.35;;
64816;SDS011;69411;45.656;11.740;2023-05-19T06:39:48;7.78;;;5.18;;
64816;SDS011;69411;45.656;11.740;2023-05-19T06:42:17;7.85;;;4.72;;
64816;SDS011;69411;45.656;11.740;2023-05-19T06:44:47;8.48;;;4.57;;
64816;SDS011;69411;45.656;11.740;2023-05-19T06:47:17;11.00;;;5.45;;
64816;SDS011;69411;45.656;11.740;2023-05-19T06:49:43;8.57;;;4.80;;
64816;SDS011;69411;45.656;11.740;2023-05-19T06:52:10;9.05;;;4.95;;
64816;SDS011;69411;45.656;11.740;2023-05-19T06:54:36;9.20;;;4.90;;
64816;SDS011;69411;45.656;11.740;2023-05-19T06:57:02;11.95;;;5.40;;
64816;SDS011;69411;45.656;11.740;2023-05-19T06:59:28;7.20;;;4.53;;
64816;SDS011;69411;45.656;11.740;2023-05-19T07:01:54;10.23;;;5.15;;
64816;SDS011;69411;45.656;11.740;2023-05-19T07:04:21;8.45;;;4.75;;
64816;SDS011;69411;45.656;11.740;2023-05-19T07:06:46;10.65;;;5.15;;
64816;SDS011;69411;45.656;11.740;2023-05-19T07:09:14;7.03;;;4.18;;
64816;SDS011;69411;45.656;11.740;2023-05-19T07:11:40;8.18;;;5.00;;
64816;SDS011;69411;45.656;11.740;2023-05-19T07:14:06;10.20;;;4.45;;
64816;SDS011;69411;45.656;11.740;2023-05-19T07:16:32;10.20;;;4.97;;
64816;SDS011;69411;45.656;11.740;2023-05-19T07:18:57;9.65;;;4.32;;
64816;SDS011;69411;45.656;11.740;2023-05-19T07:21:23;8.63;;;5.05;;
64816;SDS011;69411;45.656;11.740;2023-05-19T07:23:49;7.63;;;4.10;;
64816;SDS011;69411;45.656;11.740;2023-05-19T07:26:15;10.10;;;4.57;;
64816;SDS011;69411;45.656;11.740;2023-05-19T07:28:41;9.40;;;5.15;;
64816;SDS011;69411;45.656;11.740;2023-05-19T07:31:08;7.47;;;4.45;;
64816;SDS011;69411;45.656;11.740;2023-05-19T07:33:34;11.18;;;5.13;;
64816;SDS011;69411;45.656;11.740;2023-05-19T07:35:59;8.18;;;4.70;;
64816;SDS011;69411;45.656;11.740;2023-05-19T07:38:25;7.30;;;4.60;;
64816;SDS011;69411;45.656;11.740;2023-05-19T07:40:53;8.20;;;4.70;;
64816;SDS011;69411;45.656;11.740;2023-05-19T07:43:18;10.07;;;5.07;;
64816;SDS011;69411;45.656;11.740;2023-05-19T07:45:44;8.90;;;4.43;;
64816;SDS011;69411;45.656;11.740;2023-05-19T07:48:10;10.10;;;5.10;;
64816;SDS011;69411;45.656;11.740;2023-05-19T07:50:36;8.00;;;4.47;;
64816;SDS011;69411;45.656;11.740;2023-05-19T07:53:02;9.23;;;4.57;;
64816;SDS011;69411;45.656;11.740;2023-05-19T07:55:28;8.60;;;4.90;;
64816;SDS011;69411;45.656;11.740;2023-05-19T07:57:54;7.50;;;4.78;;
64816;SDS011;69411;45.656;11.740;2023-05-19T08:00:21;7.38;;;4.15;;
64816;SDS011;69411;45.656;11.740;2023-05-19T08:02:47;7.63;;;4.20;;
64816;SDS011;69411;45.656;11.740;2023-05-19T08:05:13;7.05;;;3.85;;
64816;SDS011;69411;45.656;11.740;2023-05-19T08:07:39;7.45;;;4.10;;
64816;SDS011;69411;45.656;11.740;2023-05-19T08:10:05;10.20;;;4.65;;
64816;SDS011;69411;45.656;11.740;2023-05-19T08:12:31;6.88;;;4.20;;
64816;SDS011;69411;45.656;11.740;2023-05-19T08:14:57;7.97;;;4.35;;
64816;SDS011;69411;45.656;11.740;2023-05-19T08:17:23;9.45;;;4.03;;
64816;SDS011;69411;45.656;11.740;2023-05-19T08:19:48;6.50;;;3.80;;
64816;SDS011;69411;45.656;11.740;2023-05-19T08:22:15;7.57;;;4.10;;
64816;SDS011;69411;45.656;11.740;2023-05-19T08:24:41;8.57;;;4.65;;
64816;SDS011;69411;45.656;11.740;2023-05-19T08:27:07;8.00;;;4.32;;
64816;SDS011;69411;45.656;11.740;2023-05-19T08:29:33;10.02;;;4.30;;
64816;SDS011;69411;45.656;11.740;2023-05-19T08:31:59;6.10;;;4.10;;
64816;SDS011;69411;45.656;11.740;2023-05-19T08:34:26;8.00;;;4.78;;
64816;SDS011;69411;45.656;11.740;2023-05-19T08:36:52;6.90;;;4.07;;
64816;SDS011;69411;45.656;11.740;2023-05-19T08:39:22;8.38;;;4.65;;
64816;SDS011;69411;45.656;11.740;2023-05-19T08:41:51;8.18;;;4.47;;
64816;SDS011;69411;45.656;11.740;2023-05-19T08:44:18;7.30;;;4.30;;
64816;SDS011;69411;45.656;11.740;2023-05-19T08:46:44;8.02;;;4.10;;
64816;SDS011;69411;45.656;11.740;2023-05-19T08:49:13;8.43;;;4.72;;
64816;SDS011;69411;45.656;11.740;2023-05-19T08:51:49;8.90;;;4.80;;
64816;SDS011;69411;45.656;11.740;2023-05-19T08:54:20;9.45;;;4.75;;
64816;SDS011;69411;45.656;11.740;2023-05-19T08:56:54;6.53;;;4.28;;
64816;SDS011;69411;45.656;11.740;2023-05-19T08:59:21;6.60;;;4.07;;
64816;SDS011;69411;45.656;11.740;2023-05-19T09:01:47;7.78;;;3.80;;
64816;SDS011;69411;45.656;11.740;2023-05-19T09:04:14;9.38;;;4.28;;
64816;SDS011;69411;45.656;11.740;2023-05-19T09:06:40;7.97;;;4.10;;
64816;SDS011;69411;45.656;11.740;2023-05-19T09:09:09;7.38;;;4.40;;
64816;SDS011;69411;45.656;11.740;2023-05-19T09:11:35;6.97;;;4.10;;
64816;SDS011;69411;45.656;11.740;2023-05-19T09:14:03;7.38;;;3.63;;
64816;SDS011;69411;45.656;11.740;2023-05-19T09:16:29;5.97;;;3.83;;
64816;SDS011;69411;45.656;11.740;2023-05-19T09:18:56;7.95;;;3.97;;
64816;SDS011;69411;45.656;11.740;2023-05-19T09:21:26;6.45;;;3.72;;
64816;SDS011;69411;45.656;11.740;2023-05-19T09:23:56;5.22;;;3.20;;
64816;SDS011;69411;45.656;11.740;2023-05-19T09:26:37;5.32;;;3.00;;
64816;SDS011;69411;45.656;11.740;2023-05-19T09:29:11;5.35;;;2.92;;
64816;SDS011;69411;45.656;11.740;2023-05-19T09:31:38;5.63;;;3.03;;
64816;SDS011;69411;45.656;11.740;2023-05-19T09:34:10;6.38;;;3.20;;
64816;SDS011;69411;45.656;11.740;2023-05-19T09:36:38;5.60;;;2.83;;
64816;SDS011;69411;45.656;11.740;2023-05-19T09:39:11;4.20;;;2.70;;
64816;SDS011;69411;45.656;11.740;2023-05-19T09:41:38;8.63;;;3.28;;
64816;SDS011;69411;45.656;11.740;2023-05-19T09:44:04;3.90;;;2.85;;
64816;SDS011;69411;45.656;11.740;2023-05-19T09:46:31;3.92;;;2.80;;
64816;SDS011;69411;45.656;11.740;2023-05-19T09:49:07;5.70;;;2.67;;
64816;SDS011;69411;45.656;11.740;2023-05-19T09:51:34;4.72;;;2.95;;
64816;SDS011;69411;45.656;11.740;2023-05-19T09:54:04;6.05;;;3.05;;
64816;SDS011;69411;45.656;11.740;2023-05-19T09:56:35;5.63;;;2.80;;
64816;SDS011;69411;45.656;11.740;2023-05-19T09:59:03;4.30;;;2.88;;
64816;SDS011;69411;45.656;11.740;2023-05-19T10:01:31;7.80;;;3.38;;
64816;SDS011;69411;45.656;11.740;2023-05-19T10:04:01;7.03;;;3.22;;
64816;SDS011;69411;45.656;11.740;2023-05-19T10:06:28;7.28;;;3.40;;
64816;SDS011;69411;45.656;11.740;2023-05-19T10:08:55;6.10;;;3.17;;
64816;SDS011;69411;45.656;11.740;2023-05-19T10:11:22;6.03;;;3.10;;
64816;SDS011;69411;45.656;11.740;2023-05-19T10:13:49;4.82;;;3.10;;
64816;SDS011;69411;45.656;11.740;2023-05-19T10:16:17;7.30;;;3.40;;
64816;SDS011;69411;45.656;11.740;2023-05-19T10:18:44;6.10;;;3.50;;
64816;SDS011;69411;45.656;11.740;2023-05-19T10:21:11;7.00;;;3.50;;
64816;SDS011;69411;45.656;11.740;2023-05-19T10:23:37;6.03;;;3.22;;
64816;SDS011;69411;45.656;11.740;2023-05-19T10:26:03;6.75;;;3.65;;
64816;SDS011;69411;45.656;11.740;2023-05-19T10:28:34;5.38;;;2.80;;
64816;SDS011;69411;45.656;11.740;2023-05-19T10:31:03;6.50;;;3.85;;
64816;SDS011;69411;45.656;11.740;2023-05-19T10:33:40;6.32;;;3.40;;
64816;SDS011;69411;45.656;11.740;2023-05-19T10:38:57;5.13;;;3.33;;
64816;SDS011;69411;45.656;11.740;2023-05-19T10:41:44;6.82;;;3.60;;
64816;SDS011;69411;45.656;11.740;2023-05-19T10:47:13;5.25;;;3.20;;
64816;SDS011;69411;45.656;11.740;2023-05-19T10:49:46;7.45;;;3.50;;
64816;SDS011;69411;45.656;11.740;2023-05-19T10:52:19;6.82;;;3.60;;
64816;SDS011;69411;45.656;11.740;2023-05-19T10:54:50;5.35;;;3.63;;
64816;SDS011;69411;45.656;11.740;2023-05-19T10:57:19;6.22;;;3.10;;
64816;SDS011;69411;45.656;11.740;2023-05-19T10:59:52;6.53;;;3.38;;
64816;SDS011;69411;45.656;11.740;2023-05-19T11:02:37;6.30;;;3.83;;
64816;SDS011;69411;45.656;11.740;2023-05-19T11:07:41;5.95;;;3.28;;
64816;SDS011;69411;45.656;11.740;2023-05-19T11:10:09;7.95;;;3.65;;
64816;SDS011;69411;45.656;11.740;2023-05-19T11:12:38;5.10;;;3.70;;
64816;SDS011;69411;45.656;11.740;2023-05-19T11:15:13;6.93;;;3.70;;
64816;SDS011;69411;45.656;11.740;2023-05-19T11:17:40;5.75;;;3.47;;
64816;SDS011;69411;45.656;11.740;2023-05-19T11:20:19;5.63;;;2.92;;
64816;SDS011;69411;45.656;11.740;2023-05-19T11:23:00;4.57;;;2.70;;
64816;SDS011;69411;45.656;11.740;2023-05-19T11:25:46;5.43;;;3.20;;
64816;SDS011;69411;45.656;11.740;2023-05-19T11:28:22;5.22;;;3.30;;
64816;SDS011;69411;45.656;11.740;2023-05-19T11:30:50;5.53;;;3.63;;
64816;SDS011;69411;45.656;11.740;2023-05-19T11:33:19;6.78;;;3.92;;
64816;SDS011;69411;45.656;11.740;2023-05-19T11:35:45;4.50;;;3.08;;
64816;SDS011;69411;45.656;11.740;2023-05-19T11:38:13;3.55;;;2.70;;
64816;SDS011;69411;45.656;11.740;2023-05-19T11:40:42;5.72;;;3.20;;
64816;SDS011;69411;45.656;11.740;2023-05-19T11:43:09;5.38;;;3.10;;
64816;SDS011;69411;45.656;11.740;2023-05-19T11:45:35;5.90;;;2.65;;
64816;SDS011;69411;45.656;11.740;2023-05-19T11:48:01;3.58;;;2.60;;
64816;SDS011;69411;45.656;11.740;2023-05-19T11:50:29;4.10;;;2.42;;
64816;SDS011;69411;45.656;11.740;2023-05-19T11:52:55;4.25;;;2.53;;
64816;SDS011;69411;45.656;11.740;2023-05-19T11:55:23;3.83;;;2.40;;
64816;SDS011;69411;45.656;11.740;2023-05-19T12:00:23;2.67;;;2.10;;
64816;SDS011;69411;45.656;11.740;2023-05-19T12:02:50;5.32;;;2.20;;
64816;SDS011;69411;45.656;11.740;2023-05-19T12:05:16;3.40;;;2.20;;
64816;SDS011;69411;45.656;11.740;2023-05-19T12:07:47;3.00;;;2.05;;
64816;SDS011;69411;45.656;11.740;2023-05-19T12:10:21;3.60;;;1.75;;
64816;SDS011;69411;45.656;11.740;2023-05-19T12:12:48;5.07;;;1.80;;
64816;SDS011;69411;45.656;11.740;2023-05-19T12:15:19;2.33;;;1.80;;
64816;SDS011;69411;45.656;11.740;2023-05-19T12:18:04;2.58;;;1.58;;
64816;SDS011;69411;45.656;11.740;2023-05-19T12:20:30;1.75;;;1.30;;
64816;SDS011;69411;45.656;11.740;2023-05-19T12:22:59;2.97;;;1.30;;
64816;SDS011;69411;45.656;11.740;2023-05-19T12:25:26;1.63;;;1.52;;
64816;SDS011;69411;45.656;11.740;2023-05-19T12:27:57;2.47;;;1.65;;
64816;SDS011;69411;45.656;11.740;2023-05-19T12:30:29;1.88;;;1.50;;
64816;SDS011;69411;45.656;11.740;2023-05-19T12:32:56;3.75;;;1.63;;
64816;SDS011;69411;45.656;11.740;2023-05-19T12:35:40;2.42;;;1.60;;
64816;SDS011;69411;45.656;11.740;2023-05-19T12:38:07;5.38;;;1.27;;
64816;SDS011;69411;45.656;11.740;2023-05-19T12:40:33;1.38;;;0.90;;
64816;SDS011;69411;45.656;11.740;2023-05-19T12:43:00;0.98;;;0.88;;
64816;SDS011;69411;45.656;11.740;2023-05-19T12:45:26;1.02;;;0.98;;
64816;SDS011;69411;45.656;11.740;2023-05-19T12:47:52;1.85;;;1.00;;
64816;SDS011;69411;45.656;11.740;2023-05-19T12:50:18;1.02;;;0.90;;
64816;SDS011;69411;45.656;11.740;2023-05-19T12:52:45;0.93;;;0.93;;
64816;SDS011;69411;45.656;11.740;2023-05-19T12:55:13;2.05;;;1.08;;
64816;SDS011;69411;45.656;11.740;2023-05-19T12:57:42;1.27;;;1.17;;
64816;SDS011;69411;45.656;11.740;2023-05-19T13:00:16;2.22;;;1.42;;
64816;SDS011;69411;45.656;11.740;2023-05-19T13:05:35;3.20;;;1.75;;
64816;SDS011;69411;45.656;11.740;2023-05-19T13:08:06;1.30;;;1.05;;
64816;SDS011;69411;45.656;11.740;2023-05-19T13:10:37;2.53;;;1.20;;
64816;SDS011;69411;45.656;11.740;2023-05-19T13:13:04;2.25;;;1.00;;
64816;SDS011;69411;45.656;11.740;2023-05-19T13:15:31;1.02;;;0.90;;
64816;SDS011;69411;45.656;11.740;2023-05-19T13:18:00;2.33;;;1.20;;
64816;SDS011;69411;45.656;11.740;2023-05-19T13:20:27;1.00;;;0.90;;
64816;SDS011;69411;45.656;11.740;2023-05-19T13:22:53;2.70;;;1.00;;
64816;SDS011;69411;45.656;11.740;2023-05-19T13:25:20;1.63;;;1.00;;
64816;SDS011;69411;45.656;11.740;2023-05-19T13:27:46;0.80;;;0.80;;
64816;SDS011;69411;45.656;11.740;2023-05-19T13:30:12;1.58;;;1.10;;
64816;SDS011;69411;45.656;11.740;2023-05-19T13:32:42;1.10;;;0.90;;
64816;SDS011;69411;45.656;11.740;2023-05-19T13:35:08;2.80;;;0.88;;
64816;SDS011;69411;45.656;11.740;2023-05-19T13:37:35;2.58;;;1.30;;
64816;SDS011;69411;45.656;11.740;2023-05-19T13:40:01;1.33;;;1.20;;
64816;SDS011;69411;45.656;11.740;2023-05-19T13:42:27;3.25;;;1.00;;
64816;SDS011;69411;45.656;11.740;2023-05-19T13:44:54;1.30;;;0.93;;
64816;SDS011;69411;45.656;11.740;2023-05-19T13:47:21;2.22;;;1.10;;
64816;SDS011;69411;45.656;11.740;2023-05-19T13:49:48;1.30;;;1.10;;
64816;SDS011;69411;45.656;11.740;2023-05-19T13:52:14;2.28;;;1.42;;
64816;SDS011;69411;45.656;11.740;2023-05-19T13:54:40;1.83;;;1.20;;
64816;SDS011;69411;45.656;11.740;2023-05-19T13:57:05;1.27;;;1.17;;
64816;SDS011;69411;45.656;11.740;2023-05-19T13:59:31;1.92;;;1.27;;
64816;SDS011;69411;45.656;11.740;2023-05-19T14:01:58;2.65;;;1.42;;
64816;SDS011;69411;45.656;11.740;2023-05-19T14:04:24;2.35;;;1.40;;
64816;SDS011;69411;45.656;11.740;2023-05-19T14:06:50;1.73;;;1.23;;
64816;SDS011;69411;45.656;11.740;2023-05-19T14:09:16;2.08;;;1.52;;
64816;SDS011;69411;45.656;11.740;2023-05-19T14:11:42;1.10;;;1.00;;
64816;SDS011;69411;45.656;11.740;2023-05-19T14:14:08;2.35;;;1.42;;
64816;SDS011;69411;45.656;11.740;2023-05-19T14:16:34;2.97;;;1.38;;
64816;SDS011;69411;45.656;11.740;2023-05-19T14:19:00;2.25;;;1.20;;
64816;SDS011;69411;45.656;11.740;2023-05-19T14:21:26;1.77;;;1.15;;
64816;SDS011;69411;45.656;11.740;2023-05-19T14:23:51;1.77;;;1.40;;
64816;SDS011;69411;45.656;11.740;2023-05-19T14:26:17;1.98;;;1.10;;
64816;SDS011;69411;45.656;11.740;2023-05-19T14:28:44;2.47;;;1.25;;
64816;SDS011;69411;45.656;11.740;2023-05-19T14:31:10;2.95;;;1.20;;
64816;SDS011;69411;45.656;11.740;2023-05-19T14:33:37;1.58;;;1.40;;
64816;SDS011;69411;45.656;11.740;2023-05-19T14:36:05;3.22;;;1.38;;
64816;SDS011;69411;45.656;11.740;2023-05-19T14:38:32;1.98;;;1.27;;
64816;SDS011;69411;45.656;11.740;2023-05-19T14:40:57;2.35;;;1.50;;
64816;SDS011;69411;45.656;11.740;2023-05-19T14:43:23;2.22;;;1.63;;
64816;SDS011;69411;45.656;11.740;2023-05-19T14:45:49;1.92;;;1.50;;
64816;SDS011;69411;45.656;11.740;2023-05-19T14:48:15;4.35;;;1.70;;
64816;SDS011;69411;45.656;11.740;2023-05-19T14:50:41;1.95;;;1.30;;
64816;SDS011;69411;45.656;11.740;2023-05-19T14:53:07;1.77;;;1.42;;
64816;SDS011;69411;45.656;11.740;2023-05-19T14:55:33;1.42;;;1.25;;
64816;SDS011;69411;45.656;11.740;2023-05-19T14:57:58;3.83;;;1.30;;
64816;SDS011;69411;45.656;11.740;2023-05-19T15:00:24;2.30;;;1.67;;
64816;SDS011;69411;45.656;11.740;2023-05-19T15:02:51;1.48;;;1.35;;
64816;SDS011;69411;45.656;11.740;2023-05-19T15:05:17;1.77;;;1.33;;